KBRO/BRO METAR and TAF weather

Enter ICAO airport designator
Station Type Date Time Source
KBRO METAR 2019/08/22 01:53 UTC NOAA

KBRO 220153Z 11008KT 10SM CLR 30/26 A2992 RMK AO2 SLP130 T03000256


Station Type Date Time Source
KBRO Decoded METAR 2019/08/22 01:53 UTC NOAA

Station name not available
Aug 21, 2019 - 09:53 PM EDT / 2019.08.22 0153 UTC
Wind: from the ESE (110 degrees) at 9 MPH (8 KT):0
Visibility: 10 mile(s):0
Sky conditions: clear
Temperature: 86.0 F (30.0 C)
Heat index: 98.2 F (36.8 C):1
Dew Point: 78.1 F (25.6 C)
Relative Humidity: 77%
Pressure (altimeter): 29.92 in. Hg (1013 hPa)
ob: KBRO 220153Z 11008KT 10SM CLR 30/26 A2992 RMK AO2 SLP130 T03000256
cycle: 2

Station Type Date Time Source
KBRO TAF 2019/08/21 18:22 UTC NOAA

TAF KBRO 211720Z 2118/2218 12010KT P6SM FEW035 SCT050
FM220200 13005KT P6SM FEW025
FM221500 14007KT P6SM SCT030 BKN050
FM221700 11010G15KT P6SM SCT035 SCT050

Example: see airport list